Airfield :
LOGIN :

Register | Disclaimer

   EN    FR    IT 

 










Legend :    VFR   Marginal VFR   IFR   Intensive IFR   Very Intensive IFR
Visi :
Ceiling :
>= 8 km
>= 3000ft
5 to 8 km
1000 to 3000 ft
1500m to 5 km
500 to 1000 ft
800 to 1500m
200 to 500 ft
< 800m
< 200 ft
Symbols :   Thunderstorms  Fog  Heavy snow  Heavy precipitations  Wind > 20 kt
SIGMETs :     Misc.  Thunderstorms  Icing  Turbulence  Mountain Waves  Volcanic Ashes






- Airport Elevation : 357 ft
- IATA code : TUF


LFOT - Tours

CURRENT METAR :
  • 170300Z AUTO 20007KT 160V220 9999 OVC007 16/16 Q1010 TEMPO 3000 -RA BKN004

EXPIRED METARs :
  • 170230Z AUTO 20007KT 170V230 8000 BKN005 OVC017 16/16 Q1010 TEMPO 3000 -RA
  • 170200Z AUTO 20006KT 170V230 4200 -RADZ BR BKN005 OVC009 16/16 Q1010 BECMG 9999 NSW
  • 170130Z AUTO 22004KT 180V260 3800 -RA BR BKN004 OVC010 16/15 Q1011 TEMPO BKN006 BECMG 9999 NSW
  • 170100Z AUTO 20004KT 3700 RA BR BKN006/// BKN019/// OVC026/// ///TCU 16/15 Q1011 TEMPO BKN006 BECMG 9999 NSW
  • 170030Z AUTO 21007KT 9999 BKN007/// OVC028/// //////TCU 16/15 Q1011 TEMPO BKN006
  • 170000Z AUTO 21007KT 9999 BKN007 BKN034 OVC060 16/15 Q1011 NOSIG
  • 162330Z AUTO 21007KT 9999 BKN008 OVC013 16/15 Q1011 NOSIG
  • 162300Z AUTO 21006KT 9999 BKN007 OVC080 16/15 Q1011 NOSIG
  • 162230Z AUTO 21006KT 9999 BKN007 BKN100 16/15 Q1011 NOSIG

TAF AMD TAF LFOT
Valid from the 17 at 01:00 until the 18 at 00:00 UTC


170157Z 1701/1724 24006KT 9999 BKN010
TEMPO 1702/1707 3000 -RA BKN004
TEMPO 1711/1720 4000 -SHRA SCT025TCU
BECMG 1712/1714 13005KT
PROB30
TEMPO 1716/1718 VRB15G25KT 2000 SHRA BKN025CB



MET'MAP, your aeronautical weather chart ! - Copyright ORBIFLY December 2007 - Disclaimer

ORBIFLY MET'MAP TEAM :

Programming & Development : Alexandra Zaïnal
Original concept : Baudouin d'Aumeries
Technical & hardware support : Manuel Goepfert
Assistance : Marc-Olivier Méhu




SOURCES & CREDITS :

   NOAA